Home > Products > Valid Products > TAF

000
FTUS45 KVEF 060847 AAD
TAFLAS
TAF AMD
KLAS 060847Z 0609/0706 17009KT P6SM FEW120 SCT200
     FM061700 20014G24KT P6SM FEW120
     FM062100 20018G28KT P6SM FEW120=



000
FTUS45 KVEF 060847 AAD
TAFLAS
TAF AMD
KLAS 060847Z 0609/0706 17009KT P6SM FEW120 SCT200
     FM061700 20014G24KT P6SM FEW120
     FM062100 20018G28KT P6SM FEW120=



000
FTUS45 KVEF 060845 AAC
TAFLAS
TAF AMD
KLAS 060845Z 0609/0706 17009KT P6SM FEW120 SCT200
     FM061900 20014G24KT P6SM FEW120=



000
FTUS45 KVEF 060845 AAC
TAFLAS
TAF AMD
KLAS 060845Z 0609/0706 17009KT P6SM FEW120 SCT200
     FM061900 20014G24KT P6SM FEW120=



000
FTUS45 KVEF 060845 AAC
TAFLAS
TAF AMD
KLAS 060845Z 0609/0706 17009KT P6SM FEW120 SCT200
     FM061900 20014G24KT P6SM FEW120=



000
FTUS45 KVEF 060845 AAC
TAFLAS
TAF AMD
KLAS 060845Z 0609/0706 17009KT P6SM FEW120 SCT200
     FM061900 20014G24KT P6SM FEW120=



000
FTUS45 KVEF 060753 AAB
TAFLAS
TAF AMD
KLAS 060753Z 0608/0706 11009KT P6SM FEW120 BKN200
     FM061000 17009KT P6SM FEW120 SCT200
     FM061900 20014G24KT P6SM FEW120=



000
FTUS45 KVEF 060753 AAB
TAFLAS
TAF AMD
KLAS 060753Z 0608/0706 11009KT P6SM FEW120 BKN200
     FM061000 17009KT P6SM FEW120 SCT200
     FM061900 20014G24KT P6SM FEW120=



000
FTUS45 KVEF 060753 AAB
TAFLAS
TAF AMD
KLAS 060753Z 0608/0706 11009KT P6SM FEW120 BKN200
     FM061000 17009KT P6SM FEW120 SCT200
     FM061900 20014G24KT P6SM FEW120=



000
FTUS45 KVEF 060753 AAB
TAFLAS
TAF AMD
KLAS 060753Z 0608/0706 11009KT P6SM FEW120 BKN200
     FM061000 17009KT P6SM FEW120 SCT200
     FM061900 20014G24KT P6SM FEW120=



000
FTUS45 KVEF 060751 AAA
TAFLAS
TAF AMD
KLAS 060751Z 0608/0706 11009KT P6SM FEW120
     FM061900 20014G24KT P6SM FEW120=



000
FTUS45 KVEF 060751 AAA
TAFLAS
TAF AMD
KLAS 060751Z 0608/0706 11009KT P6SM FEW120
     FM061900 20014G24KT P6SM FEW120=



000
FTUS45 KVEF 060520
TAFVGT
TAF
KVGT 060520Z 0606/0706 20010KT P6SM FEW120
     FM061000 16008KT P6SM FEW120
     FM061900 20015G25KT P6SM FEW120=



000
FTUS45 KVEF 060520
TAFBIH
TAF
KBIH 060520Z 0606/0706 17007KT P6SM FEW120 SCT200
     FM060700 31007KT P6SM FEW120 SCT200
     FM061900 18012G22KT P6SM FEW120=



000
FTUS45 KVEF 060520
TAFDAG
TAF
KDAG 060520Z 0606/0706 25015KT P6SM FEW120
     FM061100 27010G18KT P6SM SKC
     FM062000 25018G28KT P6SM FEW120=



000
FTUS45 KVEF 060520
TAFEED
TAF
KEED 060520Z 0606/0706 21011KT P6SM FEW150
     FM061900 20015G25KT P6SM FEW120=



000
FTUS45 KVEF 060520
TAFLAS
TAF
KLAS 060520Z 0606/0706 17012KT P6SM FEW120
     FM061900 20014G24KT P6SM FEW120=



000
FTUS45 KVEF 060520
TAFLAS
TAF
KLAS 060520Z 0606/0706 17012KT P6SM FEW120
     FM061900 20014G24KT P6SM FEW120=



000
FTUS45 KVEF 060238 AAA
TAFDAG
TAF AMD
KDAG 060238Z 0603/0624 25016G26KT P6SM FEW120
     FM061100 27010G18KT P6SM SKC
     FM062000 25018G28KT P6SM FEW120=



000
FTUS45 KVEF 060238 AAA
TAFDAG
TAF AMD
KDAG 060238Z 0603/0624 25016G26KT P6SM FEW120
     FM061100 27010G18KT P6SM SKC
     FM062000 25018G28KT P6SM FEW120=



000
FTUS45 KVEF 060237 AAB
TAFBIH
TAF AMD
KBIH 060237Z 0603/0624 35014KT P6SM SCT090 BKN200
     FM060400 33007KT P6SM FEW120 SCT200
     FM061900 18012G22KT P6SM FEW120=



000
FTUS45 KVEF 060237 AAB
TAFBIH
TAF AMD
KBIH 060237Z 0603/0624 35014KT P6SM SCT090 BKN200
     FM060400 33007KT P6SM FEW120 SCT200
     FM061900 18012G22KT P6SM FEW120=



000
FTUS45 KVEF 060235 AAB
TAFLAS
TAF AMD
KLAS 060235Z 0603/0624 20014G22KT P6SM FEW120
     FM060500 19012KT P6SM FEW120
     FM061900 20014G24KT P6SM FEW120=



000
FTUS45 KVEF 060235 AAB
TAFLAS
TAF AMD
KLAS 060235Z 0603/0624 20014G22KT P6SM FEW120
     FM060500 19012KT P6SM FEW120
     FM061900 20014G24KT P6SM FEW120=



000
FTUS45 KVEF 060235 AAB
TAFLAS
TAF AMD
KLAS 060235Z 0603/0624 20014G22KT P6SM FEW120
     FM060500 19012KT P6SM FEW120
     FM061900 20014G24KT P6SM FEW120=



000
FTUS45 KVEF 060235 AAB
TAFLAS
TAF AMD
KLAS 060235Z 0603/0624 20014G22KT P6SM FEW120
     FM060500 19012KT P6SM FEW120
     FM061900 20014G24KT P6SM FEW120=



000
FTUS45 KVEF 060050 AAA
TAFEED
TAF AMD
KEED 060050Z 0601/0624 21011KT P6SM FEW150
     FM061900 20015G25KT P6SM FEW120=



000
FTUS45 KVEF 060049 AAA
TAFLAS
TAF AMD
KLAS 060049Z 0601/0624 21010G18KT P6SM FEW120
     FM060300 19011KT P6SM FEW120
     FM061900 20014G24KT P6SM FEW120=



000
FTUS45 KVEF 060049 AAA
TAFLAS
TAF AMD
KLAS 060049Z 0601/0624 21010G18KT P6SM FEW120
     FM060300 19011KT P6SM FEW120
     FM061900 20014G24KT P6SM FEW120=



000
FTUS45 KVEF 060049 AAA
TAFLAS
TAF AMD
KLAS 060049Z 0601/0624 21010G18KT P6SM FEW120
     FM060300 19011KT P6SM FEW120
     FM061900 20014G24KT P6SM FEW120=



000
FTUS45 KVEF 060049 AAA
TAFLAS
TAF AMD
KLAS 060049Z 0601/0624 21010G18KT P6SM FEW120
     FM060300 19011KT P6SM FEW120
     FM061900 20014G24KT P6SM FEW120=



000
FTUS45 KVEF 060047 AAA
TAFBIH
TAF AMD
KBIH 060047Z 0601/0624 33014G24KT P6SM SCT120 BKN200
     FM060400 33007KT P6SM FEW120 SCT200
     FM061900 18012G22KT P6SM FEW120=



000
FTUS45 KVEF 060047 AAA
TAFBIH
TAF AMD
KBIH 060047Z 0601/0624 33014G24KT P6SM SCT120 BKN200
     FM060400 33007KT P6SM FEW120 SCT200
     FM061900 18012G22KT P6SM FEW120=



000
FTUS45 KVEF 052320
TAFDAG
TAF
KDAG 052320Z 0600/0624 26016G26KT P6SM FEW120
     FM061100 27010G18KT P6SM SKC
     FM062000 25018G28KT P6SM FEW120=



000
FTUS45 KVEF 052320
TAFVGT
TAF
KVGT 052320Z 0600/0624 16010G18KT P6SM FEW120
     FM060200 20010KT P6SM FEW120
     FM061000 16008KT P6SM FEW120
     FM061900 20015G25KT P6SM FEW120=



000
FTUS45 KVEF 052320
TAFDAG
TAF
KDAG 052320Z 0600/0624 26016G26KT P6SM FEW120
     FM061100 27010G18KT P6SM SKC
     FM062000 25018G28KT P6SM FEW120=



000
FTUS45 KVEF 052320
TAFLAS
TAF
KLAS 052320Z 0600/0624 17010G18KT P6SM FEW120
     FM060300 19011KT P6SM FEW120
     FM061900 20014G24KT P6SM FEW120=



000
FTUS45 KVEF 052320
TAFEED
TAF
KEED 052320Z 0600/0624 22011KT P6SM FEW150
     FM061900 20015G25KT P6SM FEW120=



000
FTUS45 KVEF 052320
TAFBIH
TAF
KBIH 052320Z 0600/0624 20014G24KT P6SM SCT120 BKN200
     FM060400 33007KT P6SM FEW120 SCT200
     FM061900 18012G22KT P6SM FEW120=



000
FTUS45 KVEF 052320
TAFLAS
TAF
KLAS 052320Z 0600/0624 17010G18KT P6SM FEW120
     FM060300 19011KT P6SM FEW120
     FM061900 20014G24KT P6SM FEW120=



000
FTUS45 KVEF 052320
TAFLAS
TAF
KLAS 052320Z 0600/0624 17010G18KT P6SM FEW120
     FM060300 19011KT P6SM FEW120
     FM061900 20014G24KT P6SM FEW120=



000
FTUS45 KVEF 052320
TAFEED
TAF
KEED 052320Z 0600/0624 22011KT P6SM FEW150
     FM061900 20015G25KT P6SM FEW120=



000
FTUS45 KVEF 052320
TAFBIH
TAF
KBIH 052320Z 0600/0624 20014G24KT P6SM SCT120 BKN200
     FM060400 33007KT P6SM FEW120 SCT200
     FM061900 18012G22KT P6SM FEW120=



000
FTUS45 KVEF 052320
TAFLAS
TAF
KLAS 052320Z 0600/0624 17010G18KT P6SM FEW120
     FM060300 19011KT P6SM FEW120
     FM061900 20014G24KT P6SM FEW120=



000
FTUS45 KVEF 052320
TAFVGT
TAF
KVGT 052320Z 0600/0624 16010G18KT P6SM FEW120
     FM060200 20010KT P6SM FEW120
     FM061000 16008KT P6SM FEW120
     FM061900 20015G25KT P6SM FEW120=



000
FTUS45 KVEF 052200 AAA
TAFDAG
TAF AMD
KDAG 052200Z 0522/0618 01006KT P6SM FEW120
     FM060000 25016G26KT P6SM FEW120=



000
FTUS45 KVEF 052044 AAA
TAFLAS
TAF AMD
KLAS 052044Z 0521/0618 16010KT P6SM FEW120
     FM060300 20011KT P6SM FEW120=



000
FTUS45 KVEF 052044 AAA
TAFLAS
TAF AMD
KLAS 052044Z 0521/0618 16010KT P6SM FEW120
     FM060300 20011KT P6SM FEW120=



000
FTUS45 KVEF 051723
TAFLAS
TAF
KLAS 051723Z 0518/0618 09008KT P6SM FEW120
     FM052300 18010KT P6SM FEW120
     FM060300 20011KT P6SM FEW120=



000
FTUS45 KVEF 051723
TAFLAS
TAF
KLAS 051723Z 0518/0618 09008KT P6SM FEW120
     FM052300 18010KT P6SM FEW120
     FM060300 20011KT P6SM FEW120=



000
FTUS45 KVEF 051723
TAFVGT
TAF
KVGT 051723Z 0518/0618 13007KT P6SM FEW120
     FM060200 20010KT P6SM FEW120
     FM061000 15008KT P6SM FEW120=



000
FTUS45 KVEF 051723
TAFVGT
TAF
KVGT 051723Z 0518/0618 13007KT P6SM FEW120
     FM060200 20010KT P6SM FEW120
     FM061000 15008KT P6SM FEW120=



000
FTUS45 KVEF 051723
TAFBIH
TAF
KBIH 051723Z 0518/0618 VRB06KT P6SM FEW120
     FM052100 17010G18KT P6SM SCT120 BKN200
     FM060400 33007KT P6SM FEW120 SCT200=



000
FTUS45 KVEF 051723
TAFEED
TAF
KEED 051723Z 0518/0618 VRB06KT P6SM FEW150
     FM052000 20010G20KT P6SM SCT150
     FM060300 23011KT P6SM FEW150=



000
FTUS45 KVEF 051723
TAFDAG
TAF
KDAG 051723Z 0518/0618 27012G22KT P6SM SKC
     FM060000 25016G26KT P6SM FEW120=



000
FTUS45 KVEF 051723
TAFEED
TAF
KEED 051723Z 0518/0618 VRB06KT P6SM FEW150
     FM052000 20010G20KT P6SM SCT150
     FM060300 23011KT P6SM FEW150=



000
FTUS45 KVEF 051449 AAA
TAFLAS
TAF AMD
KLAS 051449Z 0515/0612 10007KT P6SM FEW110 SCT150 SCT250
     FM051800 16007KT P6SM FEW100 SCT150 SCT250
     FM052100 21014G22KT P6SM FEW100 SCT150 BKN250
     FM060400 20012KT P6SM SCT150 SCT250=



000
FTUS45 KVEF 051449 AAA
TAFLAS
TAF AMD
KLAS 051449Z 0515/0612 10007KT P6SM FEW110 SCT150 SCT250
     FM051800 16007KT P6SM FEW100 SCT150 SCT250
     FM052100 21014G22KT P6SM FEW100 SCT150 BKN250
     FM060400 20012KT P6SM SCT150 SCT250=



000
FTUS45 KVEF 051120
TAFDAG
TAF
KDAG 051120Z 0512/0612 30010KT P6SM FEW120 SCT250
     FM052200 25016G26KT P6SM FEW120 SCT250
     FM061000 27014KT P6SM SCT250=



000
FTUS45 KVEF 051120
TAFDAG
TAF
KDAG 051120Z 0512/0612 30010KT P6SM FEW120 SCT250
     FM052200 25016G26KT P6SM FEW120 SCT250
     FM061000 27014KT P6SM SCT250=



000
FTUS45 KVEF 051120
TAFVGT
TAF
KVGT 051120Z 0512/0612 15006KT P6SM SCT150 BKN250
     FM051900 19012G20KT P6SM FEW100 SCT150 BKN250
     FM060300 19010KT P6SM SCT150 SCT250=



000
FTUS45 KVEF 051120
TAFLAS
TAF
KLAS 051120Z 0512/0612 19008KT P6SM SCT150 BKN250
     FM051900 21014G22KT P6SM FEW100 SCT150 BKN250
     FM060400 20012KT P6SM SCT150 SCT250=



000
FTUS45 KVEF 051120
TAFEED
TAF
KEED 051120Z 0512/0612 26007KT P6SM SCT120
     FM051500 VRB05KT P6SM SCT100 SCT150 BKN250
     FM052000 19010G18KT P6SM FEW100 SCT150 SCT250
     FM060200 23009KT P6SM SCT150 SCT250=



000
FTUS45 KVEF 051120
TAFBIH
TAF
KBIH 051120Z 0512/0612 33006KT P6SM SKC
     FM052100 17010G18KT P6SM SCT110 SCT250
     FM060400 31008KT P6SM FEW110 BKN250=



000
FTUS45 KVEF 051120
TAFLAS
TAF
KLAS 051120Z 0512/0612 19008KT P6SM SCT150 BKN250
     FM051900 21014G22KT P6SM FEW100 SCT150 BKN250
     FM060400 20012KT P6SM SCT150 SCT250=



000
FTUS45 KVEF 051120
TAFEED
TAF
KEED 051120Z 0512/0612 26007KT P6SM SCT120
     FM051500 VRB05KT P6SM SCT100 SCT150 BKN250
     FM052000 19010G18KT P6SM FEW100 SCT150 SCT250
     FM060200 23009KT P6SM SCT150 SCT250=



000
FTUS45 KVEF 051120
TAFBIH
TAF
KBIH 051120Z 0512/0612 33006KT P6SM SKC
     FM052100 17010G18KT P6SM SCT110 SCT250
     FM060400 31008KT P6SM FEW110 BKN250=



000
FTUS45 KVEF 050846 AAB
TAFLAS
TAF AMD
KLAS 050846Z 0509/0606 19008KT P6SM BKN100 BKN140
     FM051400 24009KT P6SM SCT120 SCT250
     FM051900 24014G20KT P6SM FEW120 SCT250=



000
FTUS45 KVEF 050846 AAB
TAFLAS
TAF AMD
KLAS 050846Z 0509/0606 19008KT P6SM BKN100 BKN140
     FM051400 24009KT P6SM SCT120 SCT250
     FM051900 24014G20KT P6SM FEW120 SCT250=



000
FTUS45 KVEF 050846 AAB
TAFLAS
TAF AMD
KLAS 050846Z 0509/0606 19008KT P6SM BKN100 BKN140
     FM051400 24009KT P6SM SCT120 SCT250
     FM051900 24014G20KT P6SM FEW120 SCT250=



000
FTUS45 KVEF 050846 AAB
TAFLAS
TAF AMD
KLAS 050846Z 0509/0606 19008KT P6SM BKN100 BKN140
     FM051400 24009KT P6SM SCT120 SCT250
     FM051900 24014G20KT P6SM FEW120 SCT250=



000
FTUS45 KVEF 050650 AAA
TAFVGT
TAF AMD
KVGT 050650Z 0507/0606 VRB06KT P6SM VCSH SCT100 BKN140
      TEMPO 0507/0508 -SHRA SCT060 BKN090
     FM052100 21011G18KT P6SM FEW120 SCT250=



000
FTUS45 KVEF 050650 AAA
TAFVGT
TAF AMD
KVGT 050650Z 0507/0606 VRB06KT P6SM VCSH SCT100 BKN140
      TEMPO 0507/0508 -SHRA SCT060 BKN090
     FM052100 21011G18KT P6SM FEW120 SCT250=



000
FTUS45 KVEF 050644 AAA
TAFLAS
TAF AMD
KLAS 050644Z 0507/0606 19010KT P6SM VCSH SCT100 BKN140
      TEMPO 0507/0508 -SHRA SCT060 BKN100
     FM051400 24009KT P6SM SCT120 SCT250
     FM051900 24014G20KT P6SM FEW120 SCT250=



000
FTUS45 KVEF 050644 AAA
TAFLAS
TAF AMD
KLAS 050644Z 0507/0606 19010KT P6SM VCSH SCT100 BKN140
      TEMPO 0507/0508 -SHRA SCT060 BKN100
     FM051400 24009KT P6SM SCT120 SCT250
     FM051900 24014G20KT P6SM FEW120 SCT250=



000
FTUS45 KVEF 050644 AAA
TAFLAS
TAF AMD
KLAS 050644Z 0507/0606 19010KT P6SM VCSH SCT100 BKN140
      TEMPO 0507/0508 -SHRA SCT060 BKN100
     FM051400 24009KT P6SM SCT120 SCT250
     FM051900 24014G20KT P6SM FEW120 SCT250=



000
FTUS45 KVEF 050644 AAA
TAFLAS
TAF AMD
KLAS 050644Z 0507/0606 19010KT P6SM VCSH SCT100 BKN140
      TEMPO 0507/0508 -SHRA SCT060 BKN100
     FM051400 24009KT P6SM SCT120 SCT250
     FM051900 24014G20KT P6SM FEW120 SCT250=



000
FTUS45 KVEF 050535
TAFBIH
TAF
KBIH 050535Z 0506/0606 33006KT P6SM FEW140
     FM052200 23010G18KT P6SM FEW140
     FM060300 31008KT P6SM FEW140 BKN200=



000
FTUS45 KVEF 050535
TAFVGT
TAF
KVGT 050535Z 0506/0606 15008KT P6SM SCT100 BKN140
     FM052100 21011G18KT P6SM FEW120 SCT250=



000
FTUS45 KVEF 050535
TAFDAG
TAF
KDAG 050535Z 0506/0606 23015KT P6SM SCT120
     FM051400 27016KT P6SM SCT120
     FM051900 26016G26KT P6SM FEW120
     FM060100 24021G28KT P6SM FEW120=



000
FTUS45 KVEF 050535
TAFEED
TAF
KEED 050535Z 0506/0606 21009KT P6SM SCT100 BKN140 BKN200
     FM051100 26007KT P6SM BKN100
     FM051900 21012G20KT P6SM FEW120 SCT140=



000
FTUS45 KVEF 050535
TAFLAS
TAF
KLAS 050535Z 0506/0606 19007KT P6SM SCT100 BKN140
     FM051400 24009KT P6SM SCT120 SCT250
     FM051900 24014G20KT P6SM FEW120 SCT250=



000
FTUS45 KVEF 050535
TAFLAS
TAF
KLAS 050535Z 0506/0606 19007KT P6SM SCT100 BKN140
     FM051400 24009KT P6SM SCT120 SCT250
     FM051900 24014G20KT P6SM FEW120 SCT250=



000
FTUS45 KVEF 050251 AAB
TAFLAS
TAF AMD
KLAS 050251Z 0503/0524 08010KT P6SM SCT100 BKN140
     FM050500 22007KT P6SM SCT090 BKN120
     FM051400 24009KT P6SM SCT120 SCT250
     FM051800 24014G20KT P6SM FEW120 SCT250=



000
FTUS45 KVEF 050251 AAB
TAFLAS
TAF AMD
KLAS 050251Z 0503/0524 08010KT P6SM SCT100 BKN140
     FM050500 22007KT P6SM SCT090 BKN120
     FM051400 24009KT P6SM SCT120 SCT250
     FM051800 24014G20KT P6SM FEW120 SCT250=



000
FTUS45 KVEF 050251 AAB
TAFLAS
TAF AMD
KLAS 050251Z 0503/0524 08010KT P6SM SCT100 BKN140
     FM050500 22007KT P6SM SCT090 BKN120
     FM051400 24009KT P6SM SCT120 SCT250
     FM051800 24014G20KT P6SM FEW120 SCT250=



000
FTUS45 KVEF 050211 AAA
TAFVGT
TAF AMD
KVGT 050211Z 0502/0524 12008KT P6SM VCSH SCT100 BKN140
     FM050600 VRB05KT P6SM BKN090
     FM051400 15007KT P6SM SCT120=



000
FTUS45 KVEF 050132 AAA
TAFLAS
TAF AMD
KLAS 050132Z 0502/0524 06010KT P6SM SCT100 BKN140
     FM050300 22010KT P6SM VCSH SCT090 BKN120
     FM050600 22011KT P6SM BKN120
     FM051400 24009KT P6SM SCT120 SCT250
     FM051800 24014G20KT P6SM FEW120 SCT250=



000
FTUS45 KVEF 050132 AAA
TAFLAS
TAF AMD
KLAS 050132Z 0502/0524 06010KT P6SM SCT100 BKN140
     FM050300 22010KT P6SM VCSH SCT090 BKN120
     FM050600 22011KT P6SM BKN120
     FM051400 24009KT P6SM SCT120 SCT250
     FM051800 24014G20KT P6SM FEW120 SCT250=



000
FTUS45 KVEF 042320
TAFVGT
TAF
KVGT 042320Z 0500/0524 20012KT P6SM SCT080 BKN120
     FM050100 20009KT P6SM VCSH BKN080
     FM050600 VRB05KT P6SM BKN090
     FM051400 15007KT P6SM SCT120=



000
FTUS45 KVEF 042320
TAFLAS
TAF
KLAS 042320Z 0500/0524 22014G22KT P6SM SCT100 BKN140
     FM050200 22010G16KT P6SM VCSH SCT090 BKN120
     FM050600 22011KT P6SM BKN120
     FM051400 24009KT P6SM SCT120 SCT250
     FM051800 24014G20KT P6SM FEW120 SCT250=



000
FTUS45 KVEF 042320
TAFLAS
TAF
KLAS 042320Z 0500/0524 22014G22KT P6SM SCT100 BKN140
     FM050200 22010G16KT P6SM VCSH SCT090 BKN120
     FM050600 22011KT P6SM BKN120
     FM051400 24009KT P6SM SCT120 SCT250
     FM051800 24014G20KT P6SM FEW120 SCT250=



000
FTUS45 KVEF 042320
TAFDAG
TAF
KDAG 042320Z 0500/0524 24012G20KT P6SM SCT120
     FM050200 25015G25KT P6SM SCT120
     FM051400 27016KT P6SM SCT250
     FM052100 26016G26KT P6SM SCT250=



000
FTUS45 KVEF 042320
TAFLAS
TAF
KLAS 042320Z 0500/0524 22014G22KT P6SM SCT100 BKN140
     FM050200 22010G16KT P6SM VCSH SCT090 BKN120
     FM050600 22011KT P6SM BKN120
     FM051400 24009KT P6SM SCT120 SCT250
     FM051800 24014G20KT P6SM FEW120 SCT250=



000
FTUS45 KVEF 042320
TAFLAS
TAF
KLAS 042320Z 0500/0524 22014G22KT P6SM SCT100 BKN140
     FM050200 22010G16KT P6SM VCSH SCT090 BKN120
     FM050600 22011KT P6SM BKN120
     FM051400 24009KT P6SM SCT120 SCT250
     FM051800 24014G20KT P6SM FEW120 SCT250=



000
FTUS45 KVEF 042320
TAFVGT
TAF
KVGT 042320Z 0500/0524 20012KT P6SM SCT080 BKN120
     FM050100 20009KT P6SM VCSH BKN080
     FM050600 VRB05KT P6SM BKN090
     FM051400 15007KT P6SM SCT120=



000
FTUS45 KVEF 042320
TAFBIH
TAF
KBIH 042320Z 0500/0524 25018G30KT P6SM FEW120 SCT250
     FM050200 33008KT P6SM SCT100
     FM051800 17010G18KT P6SM SCT120=



000
FTUS45 KVEF 042320
TAFEED
TAF
KEED 042320Z 0500/0524 17010G18KT P6SM VCTS SCT100CB
      TEMPO 0500/0503 VRB15G25KT -TSRA BKN100CB
     FM050400 21009KT P6SM SCT120 BKN200
     FM051400 21012G20KT P6SM FEW120 SCT200=



000
FTUS45 KVEF 042320
TAFDAG
TAF
KDAG 042320Z 0500/0524 24012G20KT P6SM SCT120
     FM050200 25015G25KT P6SM SCT120
     FM051400 27016KT P6SM SCT250
     FM052100 26016G26KT P6SM SCT250=



000
FTUS45 KVEF 042320
TAFBIH
TAF
KBIH 042320Z 0500/0524 25018G30KT P6SM FEW120 SCT250
     FM050200 33008KT P6SM SCT100
     FM051800 17010G18KT P6SM SCT120=



000
FTUS45 KVEF 042320
TAFEED
TAF
KEED 042320Z 0500/0524 17010G18KT P6SM VCTS SCT100CB
      TEMPO 0500/0503 VRB15G25KT -TSRA BKN100CB
     FM050400 21009KT P6SM SCT120 BKN200
     FM051400 21012G20KT P6SM FEW120 SCT200=



000
FTUS45 KVEF 042238 AAA
TAFEED
TAF AMD
KEED 042238Z 0423/0518 20010G18KT P6SM VCTS SCT080CB SCT250
      TEMPO 0423/0502 VRB15G25KT -TSRA BKN080CB
     FM050200 20008KT P6SM SCT080 BKN120=



000
FTUS45 KVEF 042140 AAF
TAFLAS
TAF AMD
KLAS 042140Z 0422/0518 18014G22KT P6SM VCSH SCT090 BKN120
     FM050000 20012KT P6SM SCT120 BKN250
     FM050600 22010G18KT P6SM BKN120=



000
FTUS45 KVEF 042140 AAF
TAFLAS
TAF AMD
KLAS 042140Z 0422/0518 18014G22KT P6SM VCSH SCT090 BKN120
     FM050000 20012KT P6SM SCT120 BKN250
     FM050600 22010G18KT P6SM BKN120=



000
FTUS45 KVEF 042047 AAE
TAFLAS
TAF AMD
KLAS 042047Z 0421/0518 12014G22KT P6SM VCTS BKN090CB BKN250
     FM050000 19012KT P6SM VCSH BKN090 BKN250
     FM050600 22010G18KT P6SM BKN120=



000
FTUS45 KVEF 042047 AAE
TAFLAS
TAF AMD
KLAS 042047Z 0421/0518 12014G22KT P6SM VCTS BKN090CB BKN250
     FM050000 19012KT P6SM VCSH BKN090 BKN250
     FM050600 22010G18KT P6SM BKN120=



000
FTUS45 KVEF 041955 AAD
TAFLAS
TAF AMD
KLAS 041955Z 0420/0518 09014G22KT P6SM VCTS BKN090CB BKN250
      TEMPO 0420/0422 VRB15G25KT
     FM050000 22012KT P6SM VCSH BKN090 BKN250
     FM050600 22010G18KT P6SM BKN120=



000
FTUS45 KVEF 041917 AAC
TAFLAS
TAF AMD
KLAS 041917Z 0419/0518 12012G20KT P6SM VCTS SCT090CB BKN120
     FM042000 17010G18KT P6SM VCTS BKN090CB BKN250
      TEMPO 0420/0424 VRB15G25KT
     FM050000 22012KT P6SM VCSH BKN090 BKN250
     FM050600 22010G18KT P6SM BKN120=



000
FTUS45 KVEF 041917 AAC
TAFLAS
TAF AMD
KLAS 041917Z 0419/0518 12012G20KT P6SM VCTS SCT090CB BKN120
     FM042000 17010G18KT P6SM VCTS BKN090CB BKN250
      TEMPO 0420/0424 VRB15G25KT
     FM050000 22012KT P6SM VCSH BKN090 BKN250
     FM050600 22010G18KT P6SM BKN120=



000
FTUS45 KVEF 041917 AAC
TAFLAS
TAF AMD
KLAS 041917Z 0419/0518 12012G20KT P6SM VCTS SCT090CB BKN120
     FM042000 17010G18KT P6SM VCTS BKN090CB BKN250
      TEMPO 0420/0424 VRB15G25KT
     FM050000 22012KT P6SM VCSH BKN090 BKN250
     FM050600 22010G18KT P6SM BKN120=



000
FTUS45 KVEF 041911 AAB
TAFLAS
TAF AMD
KLAS 041911Z 0419/0518 12012G20KT P6SM SCT090 BKN120
     FM042000 17010G18KT P6SM VCTS BKN090CB BKN250
      TEMPO 0420/0424 VRB15G25KT
     FM050000 22012KT P6SM VCSH BKN090 BKN250
     FM050600 22010G18KT P6SM BKN120=



000
FTUS45 KVEF 041911 AAB
TAFLAS
TAF AMD
KLAS 041911Z 0419/0518 12012G20KT P6SM SCT090 BKN120
     FM042000 17010G18KT P6SM VCTS BKN090CB BKN250
      TEMPO 0420/0424 VRB15G25KT
     FM050000 22012KT P6SM VCSH BKN090 BKN250
     FM050600 22010G18KT P6SM BKN120=



000
FTUS45 KVEF 041827 AAA
TAFVGT
TAF AMD
KVGT 041827Z 0418/0518 14012KT P6SM BKN120 BKN250
     FM042100 21010G18KT P6SM VCTS BKN120CB BKN250
      TEMPO 0421/0501 VRB15G25KT
     FM050300 21009KT P6SM VCSH BKN120=



000
FTUS45 KVEF 041826 AAA
TAFLAS
TAF AMD
KLAS 041826Z 0418/0518 12008KT P6SM SCT120 SCT200
     FM042000 17010G18KT P6SM VCTS BKN120CB BKN250
      TEMPO 0420/0424 VRB15G25KT
     FM050000 22012KT P6SM VCSH BKN120 BKN250
     FM050600 22010G18KT P6SM BKN120=



000
FTUS45 KVEF 041826 AAA
TAFLAS
TAF AMD
KLAS 041826Z 0418/0518 12008KT P6SM SCT120 SCT200
     FM042000 17010G18KT P6SM VCTS BKN120CB BKN250
      TEMPO 0420/0424 VRB15G25KT
     FM050000 22012KT P6SM VCSH BKN120 BKN250
     FM050600 22010G18KT P6SM BKN120=



000
FTUS45 KVEF 041826 AAA
TAFLAS
TAF AMD
KLAS 041826Z 0418/0518 12008KT P6SM SCT120 SCT200
     FM042000 17010G18KT P6SM VCTS BKN120CB BKN250
      TEMPO 0420/0424 VRB15G25KT
     FM050000 22012KT P6SM VCSH BKN120 BKN250
     FM050600 22010G18KT P6SM BKN120=



000
FTUS45 KVEF 041725 RRA
TAFLAS
TAF
KLAS 041725Z 0417/0518 14012G20KT P6SM SCT120 SCT200
     FM041900 17010G18KT P6SM VCTS BKN120CB BKN250
      TEMPO 0419/0422 VRB15G25KT
     FM042200 22012KT P6SM VCTS BKN120CB BKN250
      TEMPO 0422/0502 VRB15G25KT
     FM050600 22010G18KT P6SM BKN120=



000
FTUS45 KVEF 041725 RRA
TAFLAS
TAF
KLAS 041725Z 0417/0518 14012G20KT P6SM SCT120 SCT200
     FM041900 17010G18KT P6SM VCTS BKN120CB BKN250
      TEMPO 0419/0422 VRB15G25KT
     FM042200 22012KT P6SM VCTS BKN120CB BKN250
      TEMPO 0422/0502 VRB15G25KT
     FM050600 22010G18KT P6SM BKN120=



000
FTUS45 KVEF 041725 RRA
TAFLAS
TAF
KLAS 041725Z 0417/0518 14012G20KT P6SM SCT120 SCT200
     FM041900 17010G18KT P6SM VCTS BKN120CB BKN250
      TEMPO 0419/0422 VRB15G25KT
     FM042200 22012KT P6SM VCTS BKN120CB BKN250
      TEMPO 0422/0502 VRB15G25KT
     FM050600 22010G18KT P6SM BKN120=



000
FTUS45 KVEF 041725 RRA
TAFLAS
TAF
KLAS 041725Z 0417/0518 14012G20KT P6SM SCT120 SCT200
     FM041900 17010G18KT P6SM VCTS BKN120CB BKN250
      TEMPO 0419/0422 VRB15G25KT
     FM042200 22012KT P6SM VCTS BKN120CB BKN250
      TEMPO 0422/0502 VRB15G25KT
     FM050600 22010G18KT P6SM BKN120=



000
FTUS45 KVEF 041720
TAFLAS
TAF
KLAS 041720Z 0418/0518 06012G20KT P6SM SCT120 SCT200
     FM041900 17010G18KT P6SM VCTS BKN120CB BKN250
      TEMPO 0419/0422 VRB15G25KT
     FM042200 22012KT P6SM VCTS BKN120CB BKN250
      TEMPO 0422/0502 VRB15G25KT
     FM050600 22010G18KT P6SM BKN120=



000
FTUS45 KVEF 041720
TAFLAS
TAF
KLAS 041720Z 0418/0518 06012G20KT P6SM SCT120 SCT200
     FM041900 17010G18KT P6SM VCTS BKN120CB BKN250
      TEMPO 0419/0422 VRB15G25KT
     FM042200 22012KT P6SM VCTS BKN120CB BKN250
      TEMPO 0422/0502 VRB15G25KT
     FM050600 22010G18KT P6SM BKN120=



000
FTUS45 KVEF 041720
TAFDAG
TAF
KDAG 041720Z 0418/0518 28011KT P6SM SCT100 BKN150
     FM041900 28011G18KT P6SM SCT100 BKN150
     FM050100 25017G25KT P6SM FEW100=



000
FTUS45 KVEF 041720
TAFVGT
TAF
KVGT 041720Z 0418/0518 11012KT P6SM BKN120 BKN250
     FM042100 21010G18KT P6SM VCTS BKN120CB BKN250
      TEMPO 0421/0501 VRB15G25KT
     FM050300 21009KT P6SM VCSH BKN120=



000
FTUS45 KVEF 041720
TAFVGT
TAF
KVGT 041720Z 0418/0518 11012KT P6SM BKN120 BKN250
     FM042100 21010G18KT P6SM VCTS BKN120CB BKN250
      TEMPO 0421/0501 VRB15G25KT
     FM050300 21009KT P6SM VCSH BKN120=



000
FTUS45 KVEF 041720
TAFEED
TAF
KEED 041720Z 0418/0518 14014G23KT P6SM BKN100
     FM041900 20010G18KT P6SM SCT080 SCT250
     FM050200 20008KT P6SM SCT080 BKN120=



000
FTUS45 KVEF 041720
TAFBIH
TAF
KBIH 041720Z 0418/0518 32006KT P6SM SKC
     FM042000 17011G19KT P6SM FEW120 SCT250
     FM050200 33008KT P6SM SCT100=



000
FTUS45 KVEF 041720
TAFLAS
TAF
KLAS 041720Z 0418/0518 06012G20KT P6SM SCT120 SCT200
     FM041900 17010G18KT P6SM VCTS BKN120CB BKN250
      TEMPO 0419/0422 VRB15G25KT
     FM042200 22012KT P6SM VCTS BKN120CB BKN250
      TEMPO 0422/0502 VRB15G25KT
     FM050600 22010G18KT P6SM BKN120=



000
FTUS45 KVEF 041720
TAFLAS
TAF
KLAS 041720Z 0418/0518 06012G20KT P6SM SCT120 SCT200
     FM041900 17010G18KT P6SM VCTS BKN120CB BKN250
      TEMPO 0419/0422 VRB15G25KT
     FM042200 22012KT P6SM VCTS BKN120CB BKN250
      TEMPO 0422/0502 VRB15G25KT
     FM050600 22010G18KT P6SM BKN120=



000
FTUS45 KVEF 041720
TAFEED
TAF
KEED 041720Z 0418/0518 14014G23KT P6SM BKN100
     FM041900 20010G18KT P6SM SCT080 SCT250
     FM050200 20008KT P6SM SCT080 BKN120=



000
FTUS45 KVEF 041720
TAFBIH
TAF
KBIH 041720Z 0418/0518 32006KT P6SM SKC
     FM042000 17011G19KT P6SM FEW120 SCT250
     FM050200 33008KT P6SM SCT100=



000
FTUS45 KVEF 041720
TAFDAG
TAF
KDAG 041720Z 0418/0518 28011KT P6SM SCT100 BKN150
     FM041900 28011G18KT P6SM SCT100 BKN150
     FM050100 25017G25KT P6SM FEW100=



000
FTUS45 KVEF 041618 AAB
TAFLAS
TAF AMD
KLAS 041618Z 0416/0512 06012G20KT P6SM SCT120 SCT200
     FM041900 17010G18KT P6SM SCT120 SCT250
     FM042200 22012G20KT P6SM VCTS BKN120CB
      TEMPO 0422/0502 VRB15G25KT
     FM050600 22010G18KT P6SM BKN120=



000
FTUS45 KVEF 041618 AAB
TAFLAS
TAF AMD
KLAS 041618Z 0416/0512 06012G20KT P6SM SCT120 SCT200
     FM041900 17010G18KT P6SM SCT120 SCT250
     FM042200 22012G20KT P6SM VCTS BKN120CB
      TEMPO 0422/0502 VRB15G25KT
     FM050600 22010G18KT P6SM BKN120=



000
FTUS45 KVEF 041618 AAB
TAFLAS
TAF AMD
KLAS 041618Z 0416/0512 06012G20KT P6SM SCT120 SCT200
     FM041900 17010G18KT P6SM SCT120 SCT250
     FM042200 22012G20KT P6SM VCTS BKN120CB
      TEMPO 0422/0502 VRB15G25KT
     FM050600 22010G18KT P6SM BKN120=



000
FTUS45 KVEF 041618 AAB
TAFLAS
TAF AMD
KLAS 041618Z 0416/0512 06012G20KT P6SM SCT120 SCT200
     FM041900 17010G18KT P6SM SCT120 SCT250
     FM042200 22012G20KT P6SM VCTS BKN120CB
      TEMPO 0422/0502 VRB15G25KT
     FM050600 22010G18KT P6SM BKN120=



000
FTUS45 KVEF 041457 AAA
TAFLAS
TAF AMD
KLAS 041457Z 0415/0512 VRB05KT P6SM SCT120
     FM041900 19010G18KT P6SM SCT120 SCT250
     FM042200 22012G20KT P6SM VCTS BKN120CB
      TEMPO 0422/0502 VRB15G25KT
     FM050600 22010G18KT P6SM BKN120=



000
FTUS45 KVEF 041457 AAA
TAFLAS
TAF AMD
KLAS 041457Z 0415/0512 VRB05KT P6SM SCT120
     FM041900 19010G18KT P6SM SCT120 SCT250
     FM042200 22012G20KT P6SM VCTS BKN120CB
      TEMPO 0422/0502 VRB15G25KT
     FM050600 22010G18KT P6SM BKN120=



000
FTUS45 KVEF 041405 AAA
TAFEED
TAF AMD
KEED 041405Z 0414/0512 VRB05KT P6SM VCSH BKN100
     FM041500 14014G23KT P6SM VCSH BKN100
      TEMPO 0415/0419 -SHRA BKN080
     FM041900 20010G18KT P6SM SCT080 SCT250
     FM050200 20008KT P6SM SCT080 BKN120=



000
FTUS45 KVEF 041405 AAA
TAFEED
TAF AMD
KEED 041405Z 0414/0512 VRB05KT P6SM VCSH BKN100
     FM041500 14014G23KT P6SM VCSH BKN100
      TEMPO 0415/0419 -SHRA BKN080
     FM041900 20010G18KT P6SM SCT080 SCT250
     FM050200 20008KT P6SM SCT080 BKN120=



000
FTUS45 KVEF 041120
TAFDAG
TAF
KDAG 041120Z 0412/0512 26012KT P6SM SCT120
     FM041600 28011KT P6SM SCT100 BKN150
     FM041900 28011G18KT P6SM SCT100 BKN150
     FM050100 25017G25KT P6SM FEW100=



000
FTUS45 KVEF 041120
TAFEED
TAF
KEED 041120Z 0412/0512 VRB05KT P6SM FEW100
     FM041800 20010G18KT P6SM SCT080 SCT250
     FM050200 20008KT P6SM SCT080 BKN120=



000
FTUS45 KVEF 041120
TAFVGT
TAF
KVGT 041120Z 0412/0512 VRB05KT P6SM SCT120
     FM041900 15010KT P6SM SCT120 SCT250
     FM042100 21010G18KT P6SM SCT120 SCT250
     FM050300 21009KT P6SM BKN120=



000
FTUS45 KVEF 041120
TAFEED
TAF
KEED 041120Z 0412/0512 VRB05KT P6SM FEW100
     FM041800 20010G18KT P6SM SCT080 SCT250
     FM050200 20008KT P6SM SCT080 BKN120=



000
FTUS45 KVEF 041120
TAFLAS
TAF
KLAS 041120Z 0412/0512 20008KT P6SM SCT120
     FM041500 VRB05KT P6SM SCT120
     FM041900 19012G20KT P6SM SCT120 SCT250
     FM050600 20010G18KT P6SM BKN120=



000
FTUS45 KVEF 041120
TAFVGT
TAF
KVGT 041120Z 0412/0512 VRB05KT P6SM SCT120
     FM041900 15010KT P6SM SCT120 SCT250
     FM042100 21010G18KT P6SM SCT120 SCT250
     FM050300 21009KT P6SM BKN120=



000
FTUS45 KVEF 041120
TAFLAS
TAF
KLAS 041120Z 0412/0512 20008KT P6SM SCT120
     FM041500 VRB05KT P6SM SCT120
     FM041900 19012G20KT P6SM SCT120 SCT250
     FM050600 20010G18KT P6SM BKN120=



000
FTUS45 KVEF 041120
TAFBIH
TAF
KBIH 041120Z 0412/0512 32006KT P6SM SKC
     FM042000 17011G19KT P6SM FEW120 SCT250
     FM050200 33008KT P6SM SCT100=



000
FTUS45 KVEF 041120
TAFLAS
TAF
KLAS 041120Z 0412/0512 20008KT P6SM SCT120
     FM041500 VRB05KT P6SM SCT120
     FM041900 19012G20KT P6SM SCT120 SCT250
     FM050600 20010G18KT P6SM BKN120=



000
FTUS45 KVEF 041120
TAFDAG
TAF
KDAG 041120Z 0412/0512 26012KT P6SM SCT120
     FM041600 28011KT P6SM SCT100 BKN150
     FM041900 28011G18KT P6SM SCT100 BKN150
     FM050100 25017G25KT P6SM FEW100=



000
FTUS45 KVEF 041120
TAFLAS
TAF
KLAS 041120Z 0412/0512 20008KT P6SM SCT120
     FM041500 VRB05KT P6SM SCT120
     FM041900 19012G20KT P6SM SCT120 SCT250
     FM050600 20010G18KT P6SM BKN120=



000
FTUS45 KVEF 041120
TAFBIH
TAF
KBIH 041120Z 0412/0512 32006KT P6SM SKC
     FM042000 17011G19KT P6SM FEW120 SCT250
     FM050200 33008KT P6SM SCT100=



000
FTUS45 KVEF 040846 AAA
TAFLAS
TAF AMD
KLAS 040846Z 0409/0506 20008KT P6SM FEW120
     FM041500 VRB05KT P6SM SCT120
     FM042100 19012G20KT P6SM SCT100 SCT250=



000
FTUS45 KVEF 040846 AAA
TAFLAS
TAF AMD
KLAS 040846Z 0409/0506 20008KT P6SM FEW120
     FM041500 VRB05KT P6SM SCT120
     FM042100 19012G20KT P6SM SCT100 SCT250=



000
FTUS45 KVEF 040539
TAFLAS
TAF
KLAS 040539Z 0406/0506 20008KT P6SM FEW120
     FM041500 VRB05KT P6SM SCT120
     FM042100 19012G20KT P6SM SCT100 SCT250=



000
FTUS45 KVEF 040539
TAFDAG
TAF
KDAG 040539Z 0406/0506 26012KT P6SM SCT100
     FM041600 28011KT P6SM SCT100 BKN150
     FM041900 28011G18KT P6SM SCT100 BKN150
     FM050100 25017G25KT P6SM SCT100=



000
FTUS45 KVEF 040539
TAFBIH
TAF
KBIH 040539Z 0406/0506 36008KT P6SM SCT150
     FM040800 32006KT P6SM FEW150
     FM041900 17011G19KT P6SM FEW100 SCT250
     FM050200 33008KT P6SM SCT100=



000
FTUS45 KVEF 040539
TAFLAS
TAF
KLAS 040539Z 0406/0506 20008KT P6SM FEW120
     FM041500 VRB05KT P6SM SCT120
     FM042100 19012G20KT P6SM SCT100 SCT250=



000
FTUS45 KVEF 040539
TAFEED
TAF
KEED 040539Z 0406/0506 22007KT P6SM FEW100
     FM041800 20010G18KT P6SM SCT080
     FM050200 20008KT P6SM SCT080=



000
FTUS45 KVEF 040539
TAFVGT
TAF
KVGT 040539Z 0406/0506 22007KT P6SM FEW120
     FM041400 VRB06KT P6SM FEW120
     FM041900 15010KT P6SM SCT100 SCT250
     FM042100 21010G18KT P6SM SCT100 SCT250
     FM050300 21009KT P6SM SCT100 SCT250=



000
FTUS45 KVEF 040319 AAA
TAFBIH
TAF AMD
KBIH 040319Z 0403/0424 36012G22KT P6SM FEW120 SCT200
     FM040500 34006KT P6SM FEW120
     FM042000 17011KT P6SM FEW100=



000
FTUS45 KVEF 040250 AAA
TAFLAS
TAF AMD
KLAS 040250Z 0403/0424 22010KT P6SM FEW120
     FM041200 VRB05KT P6SM SCT120
     FM041800 18011KT P6SM SCT100=



000
FTUS45 KVEF 040250 AAA
TAFLAS
TAF AMD
KLAS 040250Z 0403/0424 22010KT P6SM FEW120
     FM041200 VRB05KT P6SM SCT120
     FM041800 18011KT P6SM SCT100=



000
FTUS45 KVEF 040250 AAA
TAFLAS
TAF AMD
KLAS 040250Z 0403/0424 22010KT P6SM FEW120
     FM041200 VRB05KT P6SM SCT120
     FM041800 18011KT P6SM SCT100=



000
FTUS45 KVEF 032320
TAFVGT
TAF
KVGT 032320Z 0400/0424 15010KT P6SM SCT120
     FM040300 VRB06KT P6SM FEW120
     FM041800 16010KT P6SM SCT100=



000
FTUS45 KVEF 032320
TAFDAG
TAF
KDAG 032320Z 0400/0424 33009KT P6SM SCT120
     FM040100 24015G22KT P6SM SCT120
     FM040700 28011KT P6SM FEW120=



000
FTUS45 KVEF 032320
TAFEED
TAF
KEED 032320Z 0400/0424 19012G22KT P6SM SCT100
     FM040300 22011KT P6SM FEW100
     FM041800 20010G18KT P6SM SCT080=



000
FTUS45 KVEF 032320
TAFLAS
TAF
KLAS 032320Z 0400/0424 18011KT P6SM SCT120
     FM040300 19008KT P6SM FEW120
     FM041200 VRB05KT P6SM SCT120
     FM041800 18011KT P6SM SCT100=



000
FTUS45 KVEF 032320
TAFLAS
TAF
KLAS 032320Z 0400/0424 18011KT P6SM SCT120
     FM040300 19008KT P6SM FEW120
     FM041200 VRB05KT P6SM SCT120
     FM041800 18011KT P6SM SCT100=



000
FTUS45 KVEF 032320
TAFVGT
TAF
KVGT 032320Z 0400/0424 15010KT P6SM SCT120
     FM040300 VRB06KT P6SM FEW120
     FM041800 16010KT P6SM SCT100=



000
FTUS45 KVEF 032320
TAFBIH
TAF
KBIH 032320Z 0400/0424 17010G20KT P6SM FEW120 SCT200
     FM040400 32006KT P6SM SKC
     FM042000 17011KT P6SM FEW100=



000
FTUS45 KVEF 032320
TAFLAS
TAF
KLAS 032320Z 0400/0424 18011KT P6SM SCT120
     FM040300 19008KT P6SM FEW120
     FM041200 VRB05KT P6SM SCT120
     FM041800 18011KT P6SM SCT100=



000
FTUS45 KVEF 032320
TAFLAS
TAF
KLAS 032320Z 0400/0424 18011KT P6SM SCT120
     FM040300 19008KT P6SM FEW120
     FM041200 VRB05KT P6SM SCT120
     FM041800 18011KT P6SM SCT100=



000
FTUS45 KVEF 032320
TAFEED
TAF
KEED 032320Z 0400/0424 19012G22KT P6SM SCT100
     FM040300 22011KT P6SM FEW100
     FM041800 20010G18KT P6SM SCT080=



000
FTUS45 KVEF 032320
TAFBIH
TAF
KBIH 032320Z 0400/0424 17010G20KT P6SM FEW120 SCT200
     FM040400 32006KT P6SM SKC
     FM042000 17011KT P6SM FEW100=



000
FTUS45 KVEF 032320
TAFDAG
TAF
KDAG 032320Z 0400/0424 33009KT P6SM SCT120
     FM040100 24015G22KT P6SM SCT120
     FM040700 28011KT P6SM FEW120=



000
FTUS45 KVEF 032132 AAA
TAFVGT
TAF AMD
KVGT 032132Z 0322/0418 15010KT P6SM SCT100
     FM040300 23007KT P6SM FEW100
     FM040700 VRB06KT P6SM FEW100=



000
FTUS45 KVEF 032001 AAA
TAFLAS
TAF AMD
KLAS 032001Z 0320/0418 13011KT P6SM FEW100
     FM032200 19012G22KT P6SM SCT100
     FM040300 19010KT P6SM FEW100=



000
FTUS45 KVEF 032001 AAA
TAFLAS
TAF AMD
KLAS 032001Z 0320/0418 13011KT P6SM FEW100
     FM032200 19012G22KT P6SM SCT100
     FM040300 19010KT P6SM FEW100=



000
FTUS45 KVEF 031720
TAFVGT
TAF
KVGT 031720Z 0318/0418 15008KT P6SM FEW100
     FM032100 18012G20KT P6SM SCT100
     FM040300 23007KT P6SM FEW100
     FM040700 VRB06KT P6SM FEW100=



000
FTUS45 KVEF 031720
TAFLAS
TAF
KLAS 031720Z 0318/0418 15008KT P6SM FEW100
     FM032000 19012G22KT P6SM SCT100
     FM040300 19010KT P6SM FEW100=



000
FTUS45 KVEF 031720
TAFEED
TAF
KEED 031720Z 0318/0418 19012G22KT P6SM SKC
     FM040300 22011KT P6SM FEW100=



000
FTUS45 KVEF 031720
TAFLAS
TAF
KLAS 031720Z 0318/0418 15008KT P6SM FEW100
     FM032000 19012G22KT P6SM SCT100
     FM040300 19010KT P6SM FEW100=



000
FTUS45 KVEF 031720
TAFVGT
TAF
KVGT 031720Z 0318/0418 15008KT P6SM FEW100
     FM032100 18012G20KT P6SM SCT100
     FM040300 23007KT P6SM FEW100
     FM040700 VRB06KT P6SM FEW100=



000
FTUS45 KVEF 031720
TAFLAS
TAF
KLAS 031720Z 0318/0418 15008KT P6SM FEW100
     FM032000 19012G22KT P6SM SCT100
     FM040300 19010KT P6SM FEW100=



000
FTUS45 KVEF 031720
TAFBIH
TAF
KBIH 031720Z 0318/0418 VRB06KT P6SM FEW120
     FM031900 17010G20KT P6SM FEW120
     FM040400 32006KT P6SM FEW120=



000
FTUS45 KVEF 031720
TAFDAG
TAF
KDAG 031720Z 0318/0418 29010KT P6SM SKC
     FM032200 05009KT P6SM FEW120
     FM040100 24015G22KT P6SM FEW120
     FM040700 27011KT P6SM SKC=



000
FTUS45 KVEF 031720
TAFEED
TAF
KEED 031720Z 0318/0418 19012G22KT P6SM SKC
     FM040300 22011KT P6SM FEW100=



000
FTUS45 KVEF 031720
TAFDAG
TAF
KDAG 031720Z 0318/0418 29010KT P6SM SKC
     FM032200 05009KT P6SM FEW120
     FM040100 24015G22KT P6SM FEW120
     FM040700 27011KT P6SM SKC=



000
FTUS45 KVEF 031720
TAFLAS
TAF
KLAS 031720Z 0318/0418 15008KT P6SM FEW100
     FM032000 19012G22KT P6SM SCT100
     FM040300 19010KT P6SM FEW100=



000
FTUS45 KVEF 031720
TAFBIH
TAF
KBIH 031720Z 0318/0418 VRB06KT P6SM FEW120
     FM031900 17010G20KT P6SM FEW120
     FM040400 32006KT P6SM FEW120=



000
FTUS45 KVEF 031433 AAA
TAFLAS
TAF AMD
KLAS 031433Z 0315/0412 20010KT P6SM FEW100
     FM031600 VRB06KT P6SM FEW100
     FM031800 16007KT P6SM FEW100
     FM032100 19014G21KT P6SM SCT100
     FM040400 20010KT P6SM FEW100=



000
FTUS45 KVEF 031433 AAA
TAFLAS
TAF AMD
KLAS 031433Z 0315/0412 20010KT P6SM FEW100
     FM031600 VRB06KT P6SM FEW100
     FM031800 16007KT P6SM FEW100
     FM032100 19014G21KT P6SM SCT100
     FM040400 20010KT P6SM FEW100=



000
FTUS45 KVEF 031120
TAFEED
TAF
KEED 031120Z 0312/0412 23010KT P6SM SKC
     FM031800 20014G24KT P6SM SCT100
     FM040300 20012KT P6SM SCT100=



000
FTUS45 KVEF 031120
TAFEED
TAF
KEED 031120Z 0312/0412 23010KT P6SM SKC
     FM031800 20014G24KT P6SM SCT100
     FM040300 20012KT P6SM SCT100=



000
FTUS45 KVEF 031120
TAFDAG
TAF
KDAG 031120Z 0312/0412 27010KT P6SM SKC
     FM031800 30010KT P6SM FEW120
     FM040100 26015G22KT P6SM FEW120
     FM040500 27011KT P6SM SKC=



000
FTUS45 KVEF 031120
TAFLAS
TAF
KLAS 031120Z 0312/0412 20010KT P6SM FEW120
     FM031600 VRB06KT P6SM FEW120
     FM031800 16007KT P6SM FEW120
     FM032100 19014G21KT P6SM SCT100
     FM040400 20010KT P6SM FEW100=



000
FTUS45 KVEF 031120
TAFLAS
TAF
KLAS 031120Z 0312/0412 20010KT P6SM FEW120
     FM031600 VRB06KT P6SM FEW120
     FM031800 16007KT P6SM FEW120
     FM032100 19014G21KT P6SM SCT100
     FM040400 20010KT P6SM FEW100=



000
FTUS45 KVEF 031120
TAFVGT
TAF
KVGT 031120Z 0312/0412 VRB06KT P6SM FEW120
     FM031800 15008KT P6SM FEW100
     FM032100 19010G20KT P6SM SCT100
     FM040300 23007KT P6SM FEW100=



000
FTUS45 KVEF 031120
TAFDAG
TAF
KDAG 031120Z 0312/0412 27010KT P6SM SKC
     FM031800 30010KT P6SM FEW120
     FM040100 26015G22KT P6SM FEW120
     FM040500 27011KT P6SM SKC=



000
FTUS45 KVEF 031120
TAFBIH
TAF
KBIH 031120Z 0312/0412 32006KT P6SM FEW120
     FM031900 17010G20KT P6SM FEW120
     FM040400 32006KT P6SM FEW120 SCT250=



000
FTUS45 KVEF 031120
TAFBIH
TAF
KBIH 031120Z 0312/0412 32006KT P6SM FEW120
     FM031900 17010G20KT P6SM FEW120
     FM040400 32006KT P6SM FEW120 SCT250=



000
FTUS45 KVEF 031120
TAFLAS
TAF
KLAS 031120Z 0312/0412 20010KT P6SM FEW120
     FM031600 VRB06KT P6SM FEW120
     FM031800 16007KT P6SM FEW120
     FM032100 19014G21KT P6SM SCT100
     FM040400 20010KT P6SM FEW100=



000
FTUS45 KVEF 031120
TAFVGT
TAF
KVGT 031120Z 0312/0412 VRB06KT P6SM FEW120
     FM031800 15008KT P6SM FEW100
     FM032100 19010G20KT P6SM SCT100
     FM040300 23007KT P6SM FEW100=



    US Dept of Commerce
    National Oceanic and Atmospheric Administration
    National Weather Service
    1325 East West Highway
    Silver Spring, MD 20910
    Page Author: NWS Internet Services Team
Disclaimer
Information Quality
Credits
Glossary
Privacy Policy
Freedom of Information Act (FOIA)
About Us
Career Opportunities